sensor_id;sensor_type;location;lat;lon;timestamp;pressure;altitude;pressure_sealevel;temperature
4421;BMP180;11824;51.178;13.546;2023-04-06T00:02:16;100721.00;;;0.20
4421;BMP180;11824;51.178;13.546;2023-04-06T00:04:45;100726.00;;;0.10
4421;BMP180;11824;51.178;13.546;2023-04-06T00:07:13;100709.00;;;0.10
4421;BMP180;11824;51.178;13.546;2023-04-06T00:09:44;100713.00;;;0.10
4421;BMP180;11824;51.178;13.546;2023-04-06T00:12:13;100721.00;;;0.00
4421;BMP180;11824;51.178;13.546;2023-04-06T00:14:41;100707.00;;;0.00
4421;BMP180;11824;51.178;13.546;2023-04-06T00:17:09;100705.00;;;0.00
4421;BMP180;11824;51.178;13.546;2023-04-06T00:19:37;100709.00;;;0.00
4421;BMP180;11824;51.178;13.546;2023-04-06T00:22:04;100710.00;;;-0.10
4421;BMP180;11824;51.178;13.546;2023-04-06T00:24:32;100712.00;;;-0.10
4421;BMP180;11824;51.178;13.546;2023-04-06T00:26:59;100709.00;;;-0.10
4421;BMP180;11824;51.178;13.546;2023-04-06T00:29:27;100718.00;;;-0.10
4421;BMP180;11824;51.178;13.546;2023-04-06T00:31:55;100708.00;;;-0.20
4421;BMP180;11824;51.178;13.546;2023-04-06T00:34:23;100702.00;;;-0.20
4421;BMP180;11824;51.178;13.546;2023-04-06T00:36:51;100711.00;;;-0.20
4421;BMP180;11824;51.178;13.546;2023-04-06T00:39:18;100686.00;;;-0.30
4421;BMP180;11824;51.178;13.546;2023-04-06T00:41:53;100698.00;;;-0.30
4421;BMP180;11824;51.178;13.546;2023-04-06T00:44:20;100696.00;;;-0.30
4421;BMP180;11824;51.178;13.546;2023-04-06T00:46:48;100696.00;;;-0.30
4421;BMP180;11824;51.178;13.546;2023-04-06T00:49:16;100701.00;;;-0.30
4421;BMP180;11824;51.178;13.546;2023-04-06T00:51:45;100693.00;;;-0.40
4421;BMP180;11824;51.178;13.546;2023-04-06T00:54:12;100699.00;;;-0.40
4421;BMP180;11824;51.178;13.546;2023-04-06T00:56:41;100693.00;;;-0.40
4421;BMP180;11824;51.178;13.546;2023-04-06T00:59:08;100701.00;;;-0.40
4421;BMP180;11824;51.178;13.546;2023-04-06T01:01:36;100695.00;;;-0.50
4421;BMP180;11824;51.178;13.546;2023-04-06T01:04:04;100700.00;;;-0.50
4421;BMP180;11824;51.178;13.546;2023-04-06T01:06:31;100693.00;;;-0.50
4421;BMP180;11824;51.178;13.546;2023-04-06T01:09:00;100697.00;;;-0.50
4421;BMP180;11824;51.178;13.546;2023-04-06T01:11:27;100690.00;;;-0.50
4421;BMP180;11824;51.178;13.546;2023-04-06T01:13:55;100688.00;;;-0.50
4421;BMP180;11824;51.178;13.546;2023-04-06T01:16:22;100698.00;;;-0.50
4421;BMP180;11824;51.178;13.546;2023-04-06T01:18:51;100701.00;;;-0.60
4421;BMP180;11824;51.178;13.546;2023-04-06T01:21:18;100684.00;;;-0.60
4421;BMP180;11824;51.178;13.546;2023-04-06T01:23:47;100689.00;;;-0.50
4421;BMP180;11824;51.178;13.546;2023-04-06T01:26:14;100690.00;;;-0.60
4421;BMP180;11824;51.178;13.546;2023-04-06T01:28:41;100698.00;;;-0.60
4421;BMP180;11824;51.178;13.546;2023-04-06T01:31:11;100690.00;;;-0.60
4421;BMP180;11824;51.178;13.546;2023-04-06T01:33:38;100697.00;;;-0.60
4421;BMP180;11824;51.178;13.546;2023-04-06T01:36:06;100698.00;;;-0.60
4421;BMP180;11824;51.178;13.546;2023-04-06T01:38:34;100704.00;;;-0.60
4421;BMP180;11824;51.178;13.546;2023-04-06T01:41:02;100690.00;;;-0.60
4421;BMP180;11824;51.178;13.546;2023-04-06T01:43:30;100690.00;;;-0.60
4421;BMP180;11824;51.178;13.546;2023-04-06T01:45:57;100683.00;;;-0.60
4421;BMP180;11824;51.178;13.546;2023-04-06T01:48:25;100691.00;;;-0.60
4421;BMP180;11824;51.178;13.546;2023-04-06T01:50:52;100690.00;;;-0.60
4421;BMP180;11824;51.178;13.546;2023-04-06T01:53:20;100684.00;;;-0.60
4421;BMP180;11824;51.178;13.546;2023-04-06T01:55:47;100676.00;;;-0.60
4421;BMP180;11824;51.178;13.546;2023-04-06T01:58:15;100682.00;;;-0.60
4421;BMP180;11824;51.178;13.546;2023-04-06T02:00:43;100679.00;;;-0.60
4421;BMP180;11824;51.178;13.546;2023-04-06T02:03:10;100688.00;;;-0.60
4421;BMP180;11824;51.178;13.546;2023-04-06T02:05:38;100684.00;;;-0.70
4421;BMP180;11824;51.178;13.546;2023-04-06T02:08:06;100680.00;;;-0.70
4421;BMP180;11824;51.178;13.546;2023-04-06T02:10:33;100680.00;;;-0.70
4421;BMP180;11824;51.178;13.546;2023-04-06T02:13:01;100670.00;;;-0.70
4421;BMP180;11824;51.178;13.546;2023-04-06T02:15:29;100678.00;;;-0.70
4421;BMP180;11824;51.178;13.546;2023-04-06T02:17:58;100676.00;;;-0.70
4421;BMP180;11824;51.178;13.546;2023-04-06T02:20:26;100684.00;;;-0.70
4421;BMP180;11824;51.178;13.546;2023-04-06T02:22:53;100679.00;;;-0.70
4421;BMP180;11824;51.178;13.546;2023-04-06T02:25:21;100671.00;;;-0.70
4421;BMP180;11824;51.178;13.546;2023-04-06T02:27:48;100676.00;;;-0.70
4421;BMP180;11824;51.178;13.546;2023-04-06T02:30:16;100671.00;;;-0.70
4421;BMP180;11824;51.178;13.546;2023-04-06T02:32:49;100669.00;;;-0.70
4421;BMP180;11824;51.178;13.546;2023-04-06T02:35:16;100671.00;;;-0.70
4421;BMP180;11824;51.178;13.546;2023-04-06T02:37:44;100674.00;;;-0.70
4421;BMP180;11824;51.178;13.546;2023-04-06T02:40:13;100671.00;;;-0.70
4421;BMP180;11824;51.178;13.546;2023-04-06T02:42:41;100667.00;;;-0.80
4421;BMP180;11824;51.178;13.546;2023-04-06T02:45:09;100675.00;;;-0.80
4421;BMP180;11824;51.178;13.546;2023-04-06T02:47:36;100678.00;;;-0.80
4421;BMP180;11824;51.178;13.546;2023-04-06T02:50:05;100670.00;;;-0.80
4421;BMP180;11824;51.178;13.546;2023-04-06T02:52:33;100669.00;;;-0.80
4421;BMP180;11824;51.178;13.546;2023-04-06T02:55:01;100658.00;;;-0.80
4421;BMP180;11824;51.178;13.546;2023-04-06T02:57:28;100672.00;;;-0.80
4421;BMP180;11824;51.178;13.546;2023-04-06T02:59:56;100673.00;;;-0.80
4421;BMP180;11824;51.178;13.546;2023-04-06T03:02:23;100674.00;;;-0.80
4421;BMP180;11824;51.178;13.546;2023-04-06T03:04:51;100671.00;;;-0.80
4421;BMP180;11824;51.178;13.546;2023-04-06T03:07:19;100676.00;;;-0.90
4421;BMP180;11824;51.178;13.546;2023-04-06T03:09:47;100674.00;;;-0.90
4421;BMP180;11824;51.178;13.546;2023-04-06T03:12:14;100677.00;;;-0.90
4421;BMP180;11824;51.178;13.546;2023-04-06T03:14:42;100665.00;;;-1.00
4421;BMP180;11824;51.178;13.546;2023-04-06T03:17:09;100660.00;;;-1.00
4421;BMP180;11824;51.178;13.546;2023-04-06T03:19:37;100669.00;;;-1.00
4421;BMP180;11824;51.178;13.546;2023-04-06T03:22:04;100660.00;;;-1.10
4421;BMP180;11824;51.178;13.546;2023-04-06T03:24:33;100677.00;;;-1.10
4421;BMP180;11824;51.178;13.546;2023-04-06T03:27:00;100666.00;;;-1.10
4421;BMP180;11824;51.178;13.546;2023-04-06T03:29:28;100667.00;;;-1.10
4421;BMP180;11824;51.178;13.546;2023-04-06T03:31:56;100667.00;;;-1.20
4421;BMP180;11824;51.178;13.546;2023-04-06T03:34:24;100668.00;;;-1.20
4421;BMP180;11824;51.178;13.546;2023-04-06T03:36:51;100666.00;;;-1.20
4421;BMP180;11824;51.178;13.546;2023-04-06T03:39:36;100674.00;;;-1.20
4421;BMP180;11824;51.178;13.546;2023-04-06T03:42:04;100678.00;;;-1.20
4421;BMP180;11824;51.178;13.546;2023-04-06T03:44:32;100681.00;;;-1.20
4421;BMP180;11824;51.178;13.546;2023-04-06T03:47:00;100687.00;;;-1.30
4421;BMP180;11824;51.178;13.546;2023-04-06T03:49:27;100679.00;;;-1.30
4421;BMP180;11824;51.178;13.546;2023-04-06T03:51:56;100686.00;;;-1.30
4421;BMP180;11824;51.178;13.546;2023-04-06T03:54:24;100700.00;;;-1.30
4421;BMP180;11824;51.178;13.546;2023-04-06T03:56:52;100704.00;;;-1.40
4421;BMP180;11824;51.178;13.546;2023-04-06T03:59:20;100702.00;;;-1.40
4421;BMP180;11824;51.178;13.546;2023-04-06T04:01:47;100696.00;;;-1.40
4421;BMP180;11824;51.178;13.546;2023-04-06T04:04:15;100699.00;;;-1.40
4421;BMP180;11824;51.178;13.546;2023-04-06T04:06:42;100706.00;;;-1.40
4421;BMP180;11824;51.178;13.546;2023-04-06T04:09:10;100701.00;;;-1.50
4421;BMP180;11824;51.178;13.546;2023-04-06T04:11:37;100699.00;;;-1.50
4421;BMP180;11824;51.178;13.546;2023-04-06T04:14:06;100702.00;;;-1.50
4421;BMP180;11824;51.178;13.546;2023-04-06T04:16:33;100700.00;;;-1.50
4421;BMP180;11824;51.178;13.546;2023-04-06T04:19:01;100702.00;;;-1.50
4421;BMP180;11824;51.178;13.546;2023-04-06T04:21:31;100704.00;;;-1.50
4421;BMP180;11824;51.178;13.546;2023-04-06T04:23:59;100700.00;;;-1.50
4421;BMP180;11824;51.178;13.546;2023-04-06T04:26:27;100700.00;;;-1.50
4421;BMP180;11824;51.178;13.546;2023-04-06T04:28:56;100706.00;;;-1.50
4421;BMP180;11824;51.178;13.546;2023-04-06T04:31:26;100708.00;;;-1.50
4421;BMP180;11824;51.178;13.546;2023-04-06T04:33:53;100698.00;;;-1.50
4421;BMP180;11824;51.178;13.546;2023-04-06T04:36:21;100694.00;;;-1.50
4421;BMP180;11824;51.178;13.546;2023-04-06T04:38:50;100698.00;;;-1.50
4421;BMP180;11824;51.178;13.546;2023-04-06T04:41:18;100688.00;;;-1.50
4421;BMP180;11824;51.178;13.546;2023-04-06T04:43:46;100701.00;;;-1.40
4421;BMP180;11824;51.178;13.546;2023-04-06T04:46:14;100703.00;;;-1.40
4421;BMP180;11824;51.178;13.546;2023-04-06T04:48:43;100701.00;;;-1.40
4421;BMP180;11824;51.178;13.546;2023-04-06T04:51:12;100705.00;;;-1.30
4421;BMP180;11824;51.178;13.546;2023-04-06T04:53:40;100711.00;;;-1.30
4421;BMP180;11824;51.178;13.546;2023-04-06T04:56:08;100703.00;;;-1.20
4421;BMP180;11824;51.178;13.546;2023-04-06T04:58:36;100700.00;;;-1.10
4421;BMP180;11824;51.178;13.546;2023-04-06T05:01:04;100700.00;;;-1.00
4421;BMP180;11824;51.178;13.546;2023-04-06T05:03:33;100699.00;;;-1.00
4421;BMP180;11824;51.178;13.546;2023-04-06T05:06:03;100714.00;;;-0.90
4421;BMP180;11824;51.178;13.546;2023-04-06T05:08:31;100707.00;;;-0.80
4421;BMP180;11824;51.178;13.546;2023-04-06T05:11:00;100707.00;;;-0.80
4421;BMP180;11824;51.178;13.546;2023-04-06T05:13:30;100708.00;;;-0.70
4421;BMP180;11824;51.178;13.546;2023-04-06T05:15:58;100706.00;;;-0.60
4421;BMP180;11824;51.178;13.546;2023-04-06T05:18:27;100707.00;;;-0.50
4421;BMP180;11824;51.178;13.546;2023-04-06T05:21:05;100708.00;;;-0.40
4421;BMP180;11824;51.178;13.546;2023-04-06T05:23:49;100707.00;;;-0.10
4421;BMP180;11824;51.178;13.546;2023-04-06T05:26:26;100712.00;;;0.20
4421;BMP180;11824;51.178;13.546;2023-04-06T05:28:59;100711.00;;;0.50
4421;BMP180;11824;51.178;13.546;2023-04-06T05:31:42;100721.00;;;1.00
4421;BMP180;11824;51.178;13.546;2023-04-06T05:34:16;100721.00;;;1.70
4421;BMP180;11824;51.178;13.546;2023-04-06T05:36:50;100728.00;;;2.50
4421;BMP180;11824;51.178;13.546;2023-04-06T05:39:26;100733.00;;;3.30
4421;BMP180;11824;51.178;13.546;2023-04-06T05:42:15;100738.00;;;4.10
4421;BMP180;11824;51.178;13.546;2023-04-06T05:44:55;100739.00;;;5.00
4421;BMP180;11824;51.178;13.546;2023-04-06T05:47:23;100747.00;;;5.70
4421;BMP180;11824;51.178;13.546;2023-04-06T05:49:54;100739.00;;;6.40
4421;BMP180;11824;51.178;13.546;2023-04-06T05:52:24;100743.00;;;7.10
4421;BMP180;11824;51.178;13.546;2023-04-06T05:54:55;100746.00;;;7.60
4421;BMP180;11824;51.178;13.546;2023-04-06T05:57:25;100753.00;;;8.00
4421;BMP180;11824;51.178;13.546;2023-04-06T05:59:58;100760.00;;;8.40
4421;BMP180;11824;51.178;13.546;2023-04-06T06:02:31;100758.00;;;8.70
4421;BMP180;11824;51.178;13.546;2023-04-06T06:04:59;100758.00;;;9.00
4421;BMP180;11824;51.178;13.546;2023-04-06T06:07:30;100747.00;;;9.10
4421;BMP180;11824;51.178;13.546;2023-04-06T06:09:59;100753.00;;;9.30
4421;BMP180;11824;51.178;13.546;2023-04-06T06:12:29;100742.00;;;9.40
4421;BMP180;11824;51.178;13.546;2023-04-06T06:14:58;100751.00;;;9.40
4421;BMP180;11824;51.178;13.546;2023-04-06T06:17:27;100753.00;;;9.30
4421;BMP180;11824;51.178;13.546;2023-04-06T06:19:55;100757.00;;;9.30
4421;BMP180;11824;51.178;13.546;2023-04-06T06:22:23;100752.00;;;9.20
4421;BMP180;11824;51.178;13.546;2023-04-06T06:24:51;100755.00;;;9.10
4421;BMP180;11824;51.178;13.546;2023-04-06T06:27:20;100757.00;;;9.00
4421;BMP180;11824;51.178;13.546;2023-04-06T06:29:47;100754.00;;;8.90
4421;BMP180;11824;51.178;13.546;2023-04-06T06:32:15;100750.00;;;8.60
4421;BMP180;11824;51.178;13.546;2023-04-06T06:34:43;100756.00;;;8.20
4421;BMP180;11824;51.178;13.546;2023-04-06T06:37:11;100744.00;;;7.80
4421;BMP180;11824;51.178;13.546;2023-04-06T06:39:39;100745.00;;;7.50
4421;BMP180;11824;51.178;13.546;2023-04-06T06:42:07;100746.00;;;7.20
4421;BMP180;11824;51.178;13.546;2023-04-06T06:44:35;100740.00;;;6.90
4421;BMP180;11824;51.178;13.546;2023-04-06T06:47:05;100744.00;;;6.70
4421;BMP180;11824;51.178;13.546;2023-04-06T06:49:33;100754.00;;;6.50
4421;BMP180;11824;51.178;13.546;2023-04-06T06:52:01;100745.00;;;6.40
4421;BMP180;11824;51.178;13.546;2023-04-06T06:54:28;100752.00;;;6.20
4421;BMP180;11824;51.178;13.546;2023-04-06T06:56:57;100749.00;;;6.10
4421;BMP180;11824;51.178;13.546;2023-04-06T06:59:25;100755.00;;;6.00
4421;BMP180;11824;51.178;13.546;2023-04-06T07:01:54;100747.00;;;6.00
4421;BMP180;11824;51.178;13.546;2023-04-06T07:04:22;100740.00;;;5.90
4421;BMP180;11824;51.178;13.546;2023-04-06T07:06:49;100745.00;;;5.80
4421;BMP180;11824;51.178;13.546;2023-04-06T07:09:18;100746.00;;;5.80
4421;BMP180;11824;51.178;13.546;2023-04-06T07:11:49;100748.00;;;5.80
4421;BMP180;11824;51.178;13.546;2023-04-06T07:14:18;100749.00;;;5.80
4421;BMP180;11824;51.178;13.546;2023-04-06T07:16:46;100751.00;;;5.80
4421;BMP180;11824;51.178;13.546;2023-04-06T07:19:16;100748.00;;;5.80
4421;BMP180;11824;51.178;13.546;2023-04-06T07:21:45;100744.00;;;5.80
4421;BMP180;11824;51.178;13.546;2023-04-06T07:24:13;100748.00;;;5.80
4421;BMP180;11824;51.178;13.546;2023-04-06T07:26:42;100752.00;;;5.80
4421;BMP180;11824;51.178;13.546;2023-04-06T07:29:11;100751.00;;;5.90
4421;BMP180;11824;51.178;13.546;2023-04-06T07:31:43;100752.00;;;5.90
4421;BMP180;11824;51.178;13.546;2023-04-06T07:34:11;100747.00;;;6.00
4421;BMP180;11824;51.178;13.546;2023-04-06T07:36:44;100749.00;;;6.00
4421;BMP180;11824;51.178;13.546;2023-04-06T07:39:13;100751.00;;;6.10
4421;BMP180;11824;51.178;13.546;2023-04-06T07:41:42;100748.00;;;6.20
4421;BMP180;11824;51.178;13.546;2023-04-06T07:44:10;100752.00;;;6.20
4421;BMP180;11824;51.178;13.546;2023-04-06T07:46:40;100746.00;;;6.30
4421;BMP180;11824;51.178;13.546;2023-04-06T07:49:10;100739.00;;;6.40
4421;BMP180;11824;51.178;13.546;2023-04-06T07:51:38;100745.00;;;6.40
4421;BMP180;11824;51.178;13.546;2023-04-06T07:54:07;100741.00;;;6.50
4421;BMP180;11824;51.178;13.546;2023-04-06T07:56:36;100747.00;;;6.60
4421;BMP180;11824;51.178;13.546;2023-04-06T07:59:04;100757.00;;;6.70
4421;BMP180;11824;51.178;13.546;2023-04-06T08:01:32;100749.00;;;6.70
4421;BMP180;11824;51.178;13.546;2023-04-06T08:04:01;100753.00;;;6.80
4421;BMP180;11824;51.178;13.546;2023-04-06T08:06:31;100748.00;;;6.90
4421;BMP180;11824;51.178;13.546;2023-04-06T08:08:59;100742.00;;;7.00
4421;BMP180;11824;51.178;13.546;2023-04-06T08:11:29;100739.00;;;7.00
4421;BMP180;11824;51.178;13.546;2023-04-06T08:13:57;100746.00;;;7.10
4421;BMP180;11824;51.178;13.546;2023-04-06T08:16:28;100746.00;;;7.20
4421;BMP180;11824;51.178;13.546;2023-04-06T08:18:56;100745.00;;;7.20
4421;BMP180;11824;51.178;13.546;2023-04-06T08:21:24;100746.00;;;7.30
4421;BMP180;11824;51.178;13.546;2023-04-06T08:23:51;100742.00;;;7.40
4421;BMP180;11824;51.178;13.546;2023-04-06T08:26:19;100749.00;;;7.40
4421;BMP180;11824;51.178;13.546;2023-04-06T08:28:47;100749.00;;;7.50
4421;BMP180;11824;51.178;13.546;2023-04-06T08:31:15;100759.00;;;7.60
4421;BMP180;11824;51.178;13.546;2023-04-06T08:33:42;100753.00;;;7.70
4421;BMP180;11824;51.178;13.546;2023-04-06T08:36:11;100746.00;;;7.70
4421;BMP180;11824;51.178;13.546;2023-04-06T08:38:40;100752.00;;;7.80
4421;BMP180;11824;51.178;13.546;2023-04-06T08:41:08;100749.00;;;7.90
4421;BMP180;11824;51.178;13.546;2023-04-06T08:43:41;100738.00;;;7.90
4421;BMP180;11824;51.178;13.546;2023-04-06T08:46:10;100752.00;;;7.90
4421;BMP180;11824;51.178;13.546;2023-04-06T08:48:40;100747.00;;;8.00
4421;BMP180;11824;51.178;13.546;2023-04-06T08:51:08;100747.00;;;8.00
4421;BMP180;11824;51.178;13.546;2023-04-06T08:53:36;100745.00;;;8.10
4421;BMP180;11824;51.178;13.546;2023-04-06T08:56:04;100740.00;;;8.10
4421;BMP180;11824;51.178;13.546;2023-04-06T08:58:35;100747.00;;;8.20
4421;BMP180;11824;51.178;13.546;2023-04-06T09:01:08;100748.00;;;8.30
4421;BMP180;11824;51.178;13.546;2023-04-06T09:03:38;100750.00;;;8.30
4421;BMP180;11824;51.178;13.546;2023-04-06T09:06:07;100761.00;;;8.40
4421;BMP180;11824;51.178;13.546;2023-04-06T09:08:35;100749.00;;;8.40
4421;BMP180;11824;51.178;13.546;2023-04-06T09:11:03;100752.00;;;8.50
4421;BMP180;11824;51.178;13.546;2023-04-06T09:13:31;100746.00;;;8.50
4421;BMP180;11824;51.178;13.546;2023-04-06T09:16:00;100746.00;;;8.60
4421;BMP180;11824;51.178;13.546;2023-04-06T09:18:31;100748.00;;;8.60
4421;BMP180;11824;51.178;13.546;2023-04-06T09:21:02;100745.00;;;8.70
4421;BMP180;11824;51.178;13.546;2023-04-06T09:23:29;100744.00;;;8.80
4421;BMP180;11824;51.178;13.546;2023-04-06T09:26:08;100740.00;;;8.90
4421;BMP180;11824;51.178;13.546;2023-04-06T09:28:46;100740.00;;;9.00
4421;BMP180;11824;51.178;13.546;2023-04-06T09:31:15;100738.00;;;9.10
4421;BMP180;11824;51.178;13.546;2023-04-06T09:33:45;100738.00;;;9.20
4421;BMP180;11824;51.178;13.546;2023-04-06T09:36:13;100742.00;;;9.30
4421;BMP180;11824;51.178;13.546;2023-04-06T09:38:52;100741.00;;;9.40
4421;BMP180;11824;51.178;13.546;2023-04-06T09:41:24;100730.00;;;9.50
4421;BMP180;11824;51.178;13.546;2023-04-06T09:44:01;100727.00;;;9.60
4421;BMP180;11824;51.178;13.546;2023-04-06T09:46:32;100722.00;;;9.80
4421;BMP180;11824;51.178;13.546;2023-04-06T09:49:20;100728.00;;;9.90
4421;BMP180;11824;51.178;13.546;2023-04-06T09:51:55;100730.00;;;10.00
4421;BMP180;11824;51.178;13.546;2023-04-06T09:54:23;100722.00;;;10.10
4421;BMP180;11824;51.178;13.546;2023-04-06T09:56:54;100727.00;;;10.20
4421;BMP180;11824;51.178;13.546;2023-04-06T09:59:29;100721.00;;;10.30
4421;BMP180;11824;51.178;13.546;2023-04-06T10:01:59;100711.00;;;10.40
4421;BMP180;11824;51.178;13.546;2023-04-06T10:04:34;100720.00;;;10.60
4421;BMP180;11824;51.178;13.546;2023-04-06T10:07:06;100716.00;;;10.80
4421;BMP180;11824;51.178;13.546;2023-04-06T10:09:36;100723.00;;;10.80
4421;BMP180;11824;51.178;13.546;2023-04-06T10:12:05;100719.00;;;10.90
4421;BMP180;11824;51.178;13.546;2023-04-06T10:14:34;100721.00;;;11.00
4421;BMP180;11824;51.178;13.546;2023-04-06T10:17:03;100714.00;;;11.00
4421;BMP180;11824;51.178;13.546;2023-04-06T10:19:37;100717.00;;;11.00
4421;BMP180;11824;51.178;13.546;2023-04-06T10:22:09;100709.00;;;11.00
4421;BMP180;11824;51.178;13.546;2023-04-06T10:24:39;100718.00;;;11.00
4421;BMP180;11824;51.178;13.546;2023-04-06T10:27:07;100710.00;;;11.00
4421;BMP180;11824;51.178;13.546;2023-04-06T10:29:45;100712.00;;;11.00
4421;BMP180;11824;51.178;13.546;2023-04-06T10:32:15;100719.00;;;11.00
4421;BMP180;11824;51.178;13.546;2023-04-06T10:34:42;100715.00;;;11.00
4421;BMP180;11824;51.178;13.546;2023-04-06T10:37:15;100713.00;;;11.00
4421;BMP180;11824;51.178;13.546;2023-04-06T10:39:52;100719.00;;;11.00
4421;BMP180;11824;51.178;13.546;2023-04-06T10:42:24;100712.00;;;10.90
4421;BMP180;11824;51.178;13.546;2023-04-06T10:44:52;100712.00;;;10.80
4421;BMP180;11824;51.178;13.546;2023-04-06T10:47:19;100714.00;;;10.80
4421;BMP180;11824;51.178;13.546;2023-04-06T10:49:47;100703.00;;;10.70
4421;BMP180;11824;51.178;13.546;2023-04-06T10:52:15;100692.00;;;10.70
4421;BMP180;11824;51.178;13.546;2023-04-06T10:54:43;100710.00;;;10.70
4421;BMP180;11824;51.178;13.546;2023-04-06T10:57:13;100705.00;;;10.60
4421;BMP180;11824;51.178;13.546;2023-04-06T10:59:44;100703.00;;;10.50
4421;BMP180;11824;51.178;13.546;2023-04-06T11:02:20;100701.00;;;10.50
4421;BMP180;11824;51.178;13.546;2023-04-06T11:04:55;100698.00;;;10.40
4421;BMP180;11824;51.178;13.546;2023-04-06T11:07:27;100692.00;;;10.40
4421;BMP180;11824;51.178;13.546;2023-04-06T11:09:57;100704.00;;;10.30
4421;BMP180;11824;51.178;13.546;2023-04-06T11:12:42;100701.00;;;10.30
4421;BMP180;11824;51.178;13.546;2023-04-06T11:15:10;100696.00;;;10.20
4421;BMP180;11824;51.178;13.546;2023-04-06T11:17:38;100695.00;;;10.20
4421;BMP180;11824;51.178;13.546;2023-04-06T11:20:10;100694.00;;;10.20
4421;BMP180;11824;51.178;13.546;2023-04-06T11:22:49;100688.00;;;10.30
4421;BMP180;11824;51.178;13.546;2023-04-06T11:25:16;100699.00;;;10.30
4421;BMP180;11824;51.178;13.546;2023-04-06T11:27:45;100688.00;;;10.30
4421;BMP180;11824;51.178;13.546;2023-04-06T11:30:14;100679.00;;;10.40
4421;BMP180;11824;51.178;13.546;2023-04-06T11:32:42;100684.00;;;10.40
4421;BMP180;11824;51.178;13.546;2023-04-06T11:35:20;100677.00;;;10.50
4421;BMP180;11824;51.178;13.546;2023-04-06T11:37:50;100681.00;;;10.60
4421;BMP180;11824;51.178;13.546;2023-04-06T11:40:22;100678.00;;;10.80
4421;BMP180;11824;51.178;13.546;2023-04-06T11:42:53;100670.00;;;10.90
4421;BMP180;11824;51.178;13.546;2023-04-06T11:45:21;100674.00;;;11.00
4421;BMP180;11824;51.178;13.546;2023-04-06T11:47:56;100682.00;;;11.10
4421;BMP180;11824;51.178;13.546;2023-04-06T11:50:24;100671.00;;;11.20
4421;BMP180;11824;51.178;13.546;2023-04-06T11:52:59;100677.00;;;11.30
4421;BMP180;11824;51.178;13.546;2023-04-06T11:55:27;100670.00;;;11.20
4421;BMP180;11824;51.178;13.546;2023-04-06T11:57:56;100673.00;;;11.20
4421;BMP180;11824;51.178;13.546;2023-04-06T12:00:24;100670.00;;;11.30
4421;BMP180;11824;51.178;13.546;2023-04-06T12:02:51;100662.00;;;11.30
4421;BMP180;11824;51.178;13.546;2023-04-06T12:05:19;100665.00;;;11.40
4421;BMP180;11824;51.178;13.546;2023-04-06T12:07:46;100669.00;;;11.30
4421;BMP180;11824;51.178;13.546;2023-04-06T12:10:15;100658.00;;;11.20
4421;BMP180;11824;51.178;13.546;2023-04-06T12:12:42;100671.00;;;11.20
4421;BMP180;11824;51.178;13.546;2023-04-06T12:15:10;100665.00;;;11.30
4421;BMP180;11824;51.178;13.546;2023-04-06T12:17:37;100661.00;;;11.30
4421;BMP180;11824;51.178;13.546;2023-04-06T12:20:06;100655.00;;;11.30
4421;BMP180;11824;51.178;13.546;2023-04-06T12:22:48;100650.00;;;11.30
4421;BMP180;11824;51.178;13.546;2023-04-06T12:25:17;100652.00;;;11.30
4421;BMP180;11824;51.178;13.546;2023-04-06T12:27:44;100664.00;;;11.30
4421;BMP180;11824;51.178;13.546;2023-04-06T12:30:12;100653.00;;;11.20
4421;BMP180;11824;51.178;13.546;2023-04-06T12:32:40;100653.00;;;11.20
4421;BMP180;11824;51.178;13.546;2023-04-06T12:35:08;100645.00;;;11.20
4421;BMP180;11824;51.178;13.546;2023-04-06T12:37:36;100643.00;;;11.20
4421;BMP180;11824;51.178;13.546;2023-04-06T12:40:04;100644.00;;;11.20
4421;BMP180;11824;51.178;13.546;2023-04-06T12:42:33;100641.00;;;11.20
4421;BMP180;11824;51.178;13.546;2023-04-06T12:45:00;100636.00;;;11.20
4421;BMP180;11824;51.178;13.546;2023-04-06T12:47:28;100637.00;;;11.20
4421;BMP180;11824;51.178;13.546;2023-04-06T12:49:55;100633.00;;;11.30
4421;BMP180;11824;51.178;13.546;2023-04-06T12:52:23;100626.00;;;11.40
4421;BMP180;11824;51.178;13.546;2023-04-06T12:54:50;100629.00;;;11.50
4421;BMP180;11824;51.178;13.546;2023-04-06T12:57:19;100622.00;;;11.50
4421;BMP180;11824;51.178;13.546;2023-04-06T12:59:47;100616.00;;;11.60
4421;BMP180;11824;51.178;13.546;2023-04-06T13:02:15;100614.00;;;11.70
4421;BMP180;11824;51.178;13.546;2023-04-06T13:04:42;100618.00;;;11.70
4421;BMP180;11824;51.178;13.546;2023-04-06T13:07:10;100617.00;;;11.80
4421;BMP180;11824;51.178;13.546;2023-04-06T13:09:37;100611.00;;;11.80
4421;BMP180;11824;51.178;13.546;2023-04-06T13:12:05;100615.00;;;11.90
4421;BMP180;11824;51.178;13.546;2023-04-06T13:14:32;100617.00;;;11.90
4421;BMP180;11824;51.178;13.546;2023-04-06T13:17:00;100610.00;;;11.90
4421;BMP180;11824;51.178;13.546;2023-04-06T13:19:28;100602.00;;;11.90
4421;BMP180;11824;51.178;13.546;2023-04-06T13:21:59;100605.00;;;12.00
4421;BMP180;11824;51.178;13.546;2023-04-06T13:24:28;100609.00;;;11.90
4421;BMP180;11824;51.178;13.546;2023-04-06T13:26:56;100600.00;;;12.00
4421;BMP180;11824;51.178;13.546;2023-04-06T13:29:23;100601.00;;;11.90
4421;BMP180;11824;51.178;13.546;2023-04-06T13:31:52;100601.00;;;11.90
4421;BMP180;11824;51.178;13.546;2023-04-06T13:34:20;100600.00;;;11.90
4421;BMP180;11824;51.178;13.546;2023-04-06T13:36:47;100600.00;;;11.90
4421;BMP180;11824;51.178;13.546;2023-04-06T13:39:15;100594.00;;;11.90
4421;BMP180;11824;51.178;13.546;2023-04-06T13:41:42;100594.00;;;11.90
4421;BMP180;11824;51.178;13.546;2023-04-06T13:44:10;100579.00;;;11.80
4421;BMP180;11824;51.178;13.546;2023-04-06T13:46:37;100593.00;;;11.70
4421;BMP180;11824;51.178;13.546;2023-04-06T13:49:05;100588.00;;;11.70
4421;BMP180;11824;51.178;13.546;2023-04-06T13:51:33;100575.00;;;11.60
4421;BMP180;11824;51.178;13.546;2023-04-06T13:54:00;100582.00;;;11.50
4421;BMP180;11824;51.178;13.546;2023-04-06T13:56:28;100578.00;;;11.40
4421;BMP180;11824;51.178;13.546;2023-04-06T13:58:56;100576.00;;;11.40
4421;BMP180;11824;51.178;13.546;2023-04-06T14:01:23;100573.00;;;11.30
4421;BMP180;11824;51.178;13.546;2023-04-06T14:03:51;100573.00;;;11.20
4421;BMP180;11824;51.178;13.546;2023-04-06T14:06:19;100577.00;;;11.10
4421;BMP180;11824;51.178;13.546;2023-04-06T14:08:59;100566.00;;;11.00
4421;BMP180;11824;51.178;13.546;2023-04-06T14:11:27;100569.00;;;11.00
4421;BMP180;11824;51.178;13.546;2023-04-06T14:13:54;100571.00;;;11.00